createdAt,value
2023-04-26T00:00:50.698Z,10.00
2023-04-26T00:03:17.708Z,9.95
2023-04-26T00:05:44.594Z,9.89
2023-04-26T00:08:11.500Z,9.85
2023-04-26T00:10:40.426Z,9.78
2023-04-26T00:13:08.319Z,9.73
2023-04-26T00:15:35.576Z,9.68
2023-04-26T00:18:02.320Z,9.63
2023-04-26T00:20:29.225Z,9.58
2023-04-26T00:22:55.955Z,9.53
2023-04-26T00:25:22.828Z,9.47
2023-04-26T00:27:50.076Z,9.42
2023-04-26T00:30:16.940Z,9.39
2023-04-26T00:32:43.883Z,9.36
2023-04-26T00:35:10.941Z,9.34
2023-04-26T00:37:37.704Z,9.32
2023-04-26T00:40:06.346Z,9.31
2023-04-26T00:42:33.130Z,9.29
2023-04-26T00:44:59.930Z,9.25
2023-04-26T00:47:26.961Z,9.22
2023-04-26T00:49:53.744Z,9.18
2023-04-26T00:52:20.673Z,9.14
2023-04-26T00:54:48.817Z,9.09
2023-04-26T00:57:15.531Z,9.06
2023-04-26T00:59:42.521Z,9.04
2023-04-26T01:02:09.426Z,9.01
2023-04-26T01:04:37.297Z,9.00
2023-04-26T01:07:04.091Z,8.98
2023-04-26T01:09:33.457Z,8.97
2023-04-26T01:12:00.866Z,9.00
2023-04-26T01:14:28.193Z,9.00
2023-04-26T01:16:56.784Z,8.98
2023-04-26T01:19:23.487Z,8.94
2023-04-26T01:21:50.503Z,8.46
2023-04-26T01:24:17.352Z,8.86
2023-04-26T01:26:45.688Z,8.81
2023-04-26T01:29:18.065Z,8.78
2023-04-26T01:31:45.210Z,8.74
2023-04-26T01:34:12.124Z,8.71
2023-04-26T01:36:39.132Z,8.69
2023-04-26T01:39:06.410Z,8.68
2023-04-26T01:41:33.736Z,8.67
2023-04-26T01:44:01.413Z,8.67
2023-04-26T01:46:28.443Z,8.68
2023-04-26T01:48:55.325Z,8.71
2023-04-26T01:51:23.021Z,8.77
2023-04-26T01:53:49.869Z,8.83
2023-04-26T01:56:16.766Z,8.88
2023-04-26T01:58:43.558Z,8.93
2023-04-26T02:01:11.269Z,8.97
2023-04-26T02:03:38.166Z,8.97
2023-04-26T02:06:05.145Z,8.12
2023-04-26T02:08:31.919Z,8.94
2023-04-26T02:10:58.718Z,8.87
2023-04-26T02:13:26.016Z,8.82
2023-04-26T02:15:53.914Z,8.79
2023-04-26T02:18:22.654Z,8.74
2023-04-26T02:20:50.723Z,8.70
2023-04-26T02:23:17.566Z,8.68
2023-04-26T02:25:47.632Z,8.65
2023-04-26T02:28:16.291Z,8.65
2023-04-26T02:30:43.277Z,8.69
2023-04-26T02:33:10.266Z,8.72
2023-04-26T02:35:37.533Z,8.80
2023-04-26T02:38:04.686Z,8.87
2023-04-26T02:40:31.536Z,8.96
2023-04-26T02:42:58.487Z,9.04
2023-04-26T02:45:25.282Z,9.11
2023-04-26T02:47:53.233Z,9.17
2023-04-26T02:50:20.269Z,9.20
2023-04-26T02:52:49.515Z,9.16
2023-04-26T02:55:16.280Z,9.19
2023-04-26T02:57:43.623Z,9.25
2023-04-26T03:00:14.110Z,9.34
2023-04-26T03:02:41.914Z,9.43
2023-04-26T03:05:09.657Z,9.51
2023-04-26T03:07:36.886Z,9.53
2023-04-26T03:10:04.915Z,9.57
2023-04-26T03:12:32.279Z,9.60
2023-04-26T03:15:00.346Z,9.59
2023-04-26T03:17:27.408Z,9.60
2023-04-26T03:19:54.491Z,9.60
2023-04-26T03:22:21.258Z,9.61
2023-04-26T03:24:49.235Z,9.61
2023-04-26T03:27:16.685Z,9.62
2023-04-26T03:29:44.820Z,9.61
2023-04-26T03:32:11.716Z,9.32
2023-04-26T03:34:38.578Z,9.68
2023-04-26T03:37:05.535Z,9.72
2023-04-26T03:39:32.578Z,9.76
2023-04-26T03:41:59.285Z,9.81
2023-04-26T03:44:26.238Z,9.88
2023-04-26T03:46:56.711Z,9.94
2023-04-26T03:49:23.878Z,10.06
2023-04-26T03:51:50.804Z,10.21
2023-04-26T03:54:18.829Z,10.35
2023-04-26T03:56:45.783Z,10.44
2023-04-26T03:59:12.580Z,10.51
2023-04-26T04:01:39.348Z,10.61
2023-04-26T04:04:06.431Z,10.61
2023-04-26T04:06:33.282Z,10.66
2023-04-26T04:09:01.211Z,10.71
2023-04-26T04:11:27.939Z,10.71
2023-04-26T04:13:55.077Z,10.73
2023-04-26T04:16:22.024Z,10.71
2023-04-26T04:18:49.331Z,10.74
2023-04-26T04:21:16.531Z,10.77
2023-04-26T04:23:44.367Z,10.83
2023-04-26T04:26:12.674Z,10.89
2023-04-26T04:28:41.595Z,10.96
2023-04-26T04:31:11.411Z,10.98
2023-04-26T04:33:38.345Z,11.07
2023-04-26T04:36:06.853Z,11.20
2023-04-26T04:38:33.694Z,11.34
2023-04-26T04:41:03.017Z,11.40
2023-04-26T04:43:30.286Z,11.56
2023-04-26T04:45:58.541Z,11.74
2023-04-26T04:48:25.507Z,11.72
2023-04-26T04:50:52.789Z,11.69
2023-04-26T04:53:19.650Z,11.71
2023-04-26T04:55:46.689Z,11.67
2023-04-26T04:58:15.447Z,11.40
2023-04-26T05:00:43.618Z,11.58
2023-04-26T05:03:21.240Z,11.69
2023-04-26T05:05:48.609Z,11.88
2023-04-26T05:08:15.495Z,11.82
2023-04-26T05:10:42.377Z,11.96
2023-04-26T05:13:09.681Z,12.13
2023-04-26T05:15:37.208Z,12.20
2023-04-26T05:18:04.417Z,12.27
2023-04-26T05:20:32.546Z,12.36
2023-04-26T05:23:00.052Z,12.45
2023-04-26T05:25:27.583Z,12.57
2023-04-26T05:28:00.982Z,12.64
2023-04-26T05:30:54.034Z,12.91
2023-04-26T05:33:37.444Z,12.91
2023-04-26T05:36:29.951Z,13.04
2023-04-26T05:38:57.311Z,13.22
2023-04-26T05:41:23.985Z,13.11
2023-04-26T05:43:51.316Z,13.41
2023-04-26T05:46:18.853Z,13.34
2023-04-26T05:48:46.286Z,13.46
2023-04-26T05:51:13.189Z,13.65
2023-04-26T05:53:39.939Z,13.79
2023-04-26T05:56:07.594Z,14.11
2023-04-26T05:58:34.919Z,13.92
2023-04-26T06:01:03.168Z,13.95
2023-04-26T06:03:30.866Z,13.84
2023-04-26T06:05:59.366Z,13.95
2023-04-26T06:08:28.416Z,13.85
2023-04-26T06:10:56.516Z,13.91
2023-04-26T06:13:23.355Z,14.08
2023-04-26T06:15:50.394Z,14.21
2023-04-26T06:18:17.094Z,14.36
2023-04-26T06:20:46.664Z,14.51
2023-04-26T06:23:13.875Z,14.51
2023-04-26T06:25:44.932Z,14.56
2023-04-26T06:28:19.892Z,14.35
2023-04-26T06:30:46.870Z,14.20
2023-04-26T06:33:14.572Z,14.23
2023-04-26T06:35:42.665Z,14.01
2023-04-26T06:38:12.745Z,13.92
2023-04-26T06:40:39.771Z,14.24
2023-04-26T06:43:06.655Z,14.20
2023-04-26T06:46:07.625Z,14.27
2023-04-26T06:48:34.520Z,13.98
2023-04-26T06:51:07.114Z,14.11
2023-04-26T06:53:34.327Z,14.27
2023-04-26T06:56:01.049Z,14.48
2023-04-26T06:58:27.906Z,14.52
2023-04-26T07:00:54.693Z,14.61
2023-04-26T07:03:21.866Z,14.73
2023-04-26T07:05:48.819Z,14.35
2023-04-26T07:08:15.930Z,14.01
2023-04-26T07:10:42.963Z,14.23
2023-04-26T07:13:09.942Z,14.17
2023-04-26T07:15:36.779Z,14.38
2023-04-26T07:18:03.718Z,14.37
2023-04-26T07:20:30.508Z,14.55
2023-04-26T07:22:57.528Z,14.68
2023-04-26T07:25:24.263Z,14.73
2023-04-26T07:27:52.134Z,15.04
2023-04-26T07:30:18.859Z,14.93
2023-04-26T07:32:45.935Z,14.46
2023-04-26T07:35:16.286Z,14.55
2023-04-26T07:37:44.028Z,14.53
2023-04-26T07:40:11.590Z,14.76
2023-04-26T07:42:38.435Z,14.95
2023-04-26T07:45:05.473Z,14.67
2023-04-26T07:47:32.463Z,14.68
2023-04-26T07:49:59.267Z,14.60
2023-04-26T07:52:26.221Z,14.81
2023-04-26T07:54:53.064Z,14.67
2023-04-26T07:57:19.961Z,14.47
2023-04-26T07:59:46.638Z,14.62
2023-04-26T08:02:13.664Z,14.39
2023-04-26T08:04:48.369Z,14.50
2023-04-26T08:07:16.066Z,14.83
2023-04-26T08:09:42.781Z,14.94
2023-04-26T08:12:09.633Z,15.06
2023-04-26T08:14:36.903Z,15.09
2023-04-26T08:17:05.347Z,14.98
2023-04-26T08:19:33.482Z,15.21
2023-04-26T08:22:00.462Z,15.61
2023-04-26T08:24:27.446Z,15.93
2023-04-26T08:26:55.040Z,16.10
2023-04-26T08:29:22.966Z,16.47
2023-04-26T08:31:49.759Z,16.33
2023-04-26T08:34:16.686Z,16.44
2023-04-26T08:36:43.892Z,16.06
2023-04-26T08:39:12.348Z,15.85
2023-04-26T08:41:43.656Z,15.88
2023-04-26T08:44:11.051Z,15.60
2023-04-26T08:46:52.523Z,15.73
2023-04-26T08:49:25.319Z,15.80
2023-04-26T08:51:53.966Z,15.73
2023-04-26T08:54:21.970Z,15.81
2023-04-26T08:56:49.448Z,15.97
2023-04-26T08:59:16.478Z,16.11
2023-04-26T09:01:44.412Z,15.84
2023-04-26T09:04:12.442Z,16.20
2023-04-26T09:06:39.768Z,16.51
2023-04-26T09:09:08.852Z,16.77
2023-04-26T09:11:55.378Z,16.95
2023-04-26T09:14:22.664Z,17.20
2023-04-26T09:16:49.871Z,17.31
2023-04-26T09:19:17.014Z,17.11
2023-04-26T09:21:46.451Z,17.19
2023-04-26T09:24:14.130Z,17.08
2023-04-26T09:26:41.996Z,17.31
2023-04-26T09:29:13.769Z,17.27
2023-04-26T09:31:42.091Z,17.10
2023-04-26T09:34:10.727Z,16.86
2023-04-26T09:36:48.760Z,16.69
2023-04-26T09:39:29.446Z,16.70
2023-04-26T09:41:57.458Z,16.78
2023-04-26T09:44:25.231Z,17.01
2023-04-26T09:47:10.308Z,17.15
2023-04-26T09:49:51.998Z,17.50
2023-04-26T09:52:20.167Z,17.54
2023-04-26T09:54:52.421Z,17.38
2023-04-26T09:57:20.766Z,17.21
2023-04-26T09:59:54.968Z,17.28
2023-04-26T10:02:26.594Z,16.90
2023-04-26T10:04:55.720Z,16.94
2023-04-26T10:07:25.966Z,17.13
2023-04-26T10:09:53.758Z,17.13
2023-04-26T10:12:20.870Z,17.37
2023-04-26T10:14:48.416Z,17.37
2023-04-26T10:17:15.465Z,17.53
2023-04-26T10:19:46.488Z,17.60
2023-04-26T10:22:18.058Z,17.69
2023-04-26T10:24:45.170Z,17.92
2023-04-26T10:27:13.497Z,17.50
2023-04-26T10:29:55.235Z,16.90
2023-04-26T10:32:22.714Z,16.98
2023-04-26T10:35:08.195Z,17.20
2023-04-26T10:37:35.232Z,17.55
2023-04-26T10:40:20.880Z,17.39
2023-04-26T10:42:47.901Z,17.38
2023-04-26T10:45:28.080Z,17.56
2023-04-26T10:48:18.353Z,17.41
2023-04-26T10:51:08.466Z,17.47
2023-04-26T10:53:35.317Z,17.26
2023-04-26T10:56:02.095Z,17.28
2023-04-26T10:58:30.572Z,17.31
2023-04-26T11:01:04.702Z,17.07
2023-04-26T11:03:32.131Z,17.12
2023-04-26T11:05:59.074Z,17.44
2023-04-26T11:08:27.271Z,17.53
2023-04-26T11:11:03.278Z,17.42
2023-04-26T11:13:33.722Z,17.37
2023-04-26T11:16:04.277Z,17.07
2023-04-26T11:18:31.775Z,16.95
2023-04-26T11:20:58.899Z,17.27
2023-04-26T11:23:27.385Z,17.50
2023-04-26T11:25:55.155Z,17.71
2023-04-26T11:28:23.424Z,17.75
2023-04-26T11:30:50.638Z,17.95
2023-04-26T11:33:24.833Z,18.22
2023-04-26T11:35:55.541Z,17.93
2023-04-26T11:38:23.273Z,18.31
2023-04-26T11:41:03.208Z,18.68
2023-04-26T11:43:39.550Z,18.90
2023-04-26T11:46:07.367Z,19.16
2023-04-26T11:48:35.163Z,19.00
2023-04-26T11:51:03.229Z,18.59
2023-04-26T11:53:37.788Z,18.34
2023-04-26T11:56:14.892Z,18.06
2023-04-26T11:58:44.066Z,18.42
2023-04-26T12:01:10.773Z,18.99
2023-04-26T12:03:37.999Z,19.20
2023-04-26T12:06:05.077Z,19.17
2023-04-26T12:08:33.664Z,18.78
2023-04-26T12:11:02.250Z,18.77
2023-04-26T12:13:30.618Z,18.60
2023-04-26T12:15:57.741Z,18.41
2023-04-26T12:18:33.218Z,18.47
2023-04-26T12:21:01.434Z,18.98
2023-04-26T12:23:37.460Z,18.88
2023-04-26T12:26:05.217Z,18.37
2023-04-26T12:28:32.913Z,18.44
2023-04-26T12:31:01.587Z,18.51
2023-04-26T12:33:28.687Z,18.37
2023-04-26T12:35:57.714Z,18.36
2023-04-26T12:38:24.677Z,18.01
2023-04-26T12:40:51.940Z,18.03
2023-04-26T12:43:19.896Z,17.94
2023-04-26T12:45:46.970Z,17.32
2023-04-26T12:48:14.235Z,17.25
2023-04-26T12:50:41.440Z,17.29
2023-04-26T12:53:08.341Z,17.24
2023-04-26T12:55:35.767Z,17.25
2023-04-26T12:58:02.745Z,16.88
2023-04-26T13:00:29.534Z,16.82
2023-04-26T13:02:56.606Z,16.60
2023-04-26T13:05:26.376Z,16.78
2023-04-26T13:07:53.218Z,16.90
2023-04-26T13:10:20.226Z,17.09
2023-04-26T13:12:47.186Z,16.76
2023-04-26T13:15:15.623Z,16.49
2023-04-26T13:17:44.576Z,16.21
2023-04-26T13:20:11.770Z,16.17
2023-04-26T13:22:41.906Z,15.96
2023-04-26T13:25:09.513Z,15.92
2023-04-26T13:27:36.925Z,15.86
2023-04-26T13:30:04.020Z,15.62
2023-04-26T13:32:32.026Z,15.53
2023-04-26T13:34:59.034Z,15.29
2023-04-26T13:37:26.988Z,15.25
2023-04-26T13:39:54.305Z,15.16
2023-04-26T13:42:21.300Z,15.08
2023-04-26T13:44:48.100Z,15.00
2023-04-26T13:47:14.778Z,14.90
2023-04-26T13:49:42.013Z,14.96
2023-04-26T13:52:08.738Z,14.94
2023-04-26T13:54:36.828Z,14.87
2023-04-26T13:57:04.053Z,14.53
2023-04-26T13:59:31.077Z,14.29
2023-04-26T14:01:59.055Z,14.17
2023-04-26T14:04:26.359Z,14.17
2023-04-26T14:06:53.716Z,14.17
2023-04-26T14:09:20.433Z,13.93
2023-04-26T14:11:49.439Z,13.94
2023-04-26T14:14:24.556Z,14.04
2023-04-26T14:16:51.338Z,14.01
2023-04-26T14:19:18.157Z,13.97
2023-04-26T14:21:45.058Z,13.89
2023-04-26T14:24:12.050Z,13.68
2023-04-26T14:26:38.791Z,13.55
2023-04-26T14:29:05.621Z,13.47
2023-04-26T14:31:32.829Z,13.51
2023-04-26T14:33:59.762Z,13.27
2023-04-26T14:36:26.709Z,13.29
2023-04-26T14:38:53.565Z,13.15
2023-04-26T14:41:20.301Z,13.08
2023-04-26T14:43:47.514Z,12.92
2023-04-26T14:46:14.468Z,12.82
2023-04-26T14:48:43.677Z,12.77
2023-04-26T14:51:10.548Z,12.78
2023-04-26T14:53:37.377Z,13.00
2023-04-26T14:56:06.124Z,12.93
2023-04-26T14:58:33.118Z,12.90
2023-04-26T15:01:00.557Z,12.89
2023-04-26T15:03:27.710Z,12.91
2023-04-26T15:05:54.555Z,12.85
2023-04-26T15:08:21.455Z,12.65
2023-04-26T15:10:48.249Z,12.54
2023-04-26T15:13:15.610Z,12.64
2023-04-26T15:15:42.516Z,12.63
2023-04-26T15:18:09.383Z,12.35
2023-04-26T15:20:38.850Z,12.43
2023-04-26T15:23:05.959Z,12.42
2023-04-26T15:25:34.508Z,12.39
2023-04-26T15:28:01.373Z,12.38
2023-04-26T15:30:30.296Z,12.40
2023-04-26T15:32:57.560Z,12.24
2023-04-26T15:35:25.111Z,12.14
2023-04-26T15:37:54.076Z,12.03
2023-04-26T15:40:24.711Z,11.98
2023-04-26T15:42:52.097Z,12.12
2023-04-26T15:45:19.452Z,12.01
2023-04-26T15:47:47.067Z,12.01
2023-04-26T15:50:14.845Z,12.02
2023-04-26T15:52:42.278Z,11.94
2023-04-26T15:55:09.879Z,11.97
2023-04-26T15:57:37.548Z,12.00
2023-04-26T16:00:08.058Z,11.97
2023-04-26T16:02:35.041Z,11.87
2023-04-26T16:05:02.075Z,11.91
2023-04-26T16:07:30.281Z,11.92
2023-04-26T16:09:56.962Z,11.84
2023-04-26T16:12:24.262Z,11.69
2023-04-26T16:14:52.014Z,11.80
2023-04-26T16:17:18.872Z,11.90
2023-04-26T16:19:45.667Z,11.73
2023-04-26T16:22:12.610Z,11.79
2023-04-26T16:24:39.424Z,11.79
2023-04-26T16:27:06.305Z,11.88
2023-04-26T16:29:33.045Z,11.90
2023-04-26T16:31:59.991Z,11.74
2023-04-26T16:34:26.844Z,11.62
2023-04-26T16:36:53.832Z,11.51
2023-04-26T16:39:22.148Z,11.55
2023-04-26T16:41:49.267Z,11.59
2023-04-26T16:44:16.844Z,11.57
2023-04-26T16:46:43.939Z,11.43
2023-04-26T16:49:11.008Z,11.33
2023-04-26T16:51:38.437Z,11.45
2023-04-26T16:54:05.487Z,11.45
2023-04-26T16:56:32.465Z,11.50
2023-04-26T16:58:59.579Z,11.40
2023-04-26T17:01:26.920Z,11.31
2023-04-26T17:03:54.083Z,11.36
2023-04-26T17:06:21.330Z,11.29
2023-04-26T17:08:48.150Z,11.26
2023-04-26T17:11:15.575Z,11.30
2023-04-26T17:13:42.379Z,11.33
2023-04-26T17:16:09.631Z,11.28
2023-04-26T17:18:37.178Z,11.24
2023-04-26T17:21:04.587Z,11.28
2023-04-26T17:23:33.797Z,11.15
2023-04-26T17:26:01.634Z,11.23
2023-04-26T17:28:28.657Z,11.23
2023-04-26T17:30:55.672Z,11.21
2023-04-26T17:33:22.435Z,11.23
2023-04-26T17:35:49.405Z,11.20
2023-04-26T17:38:16.354Z,11.18
2023-04-26T17:40:44.399Z,11.19
2023-04-26T17:43:11.531Z,11.24
2023-04-26T17:45:38.480Z,11.20
2023-04-26T17:48:05.628Z,11.21
2023-04-26T17:50:32.517Z,11.11
2023-04-26T17:52:59.188Z,11.11
2023-04-26T17:55:27.059Z,11.04
2023-04-26T17:57:53.977Z,11.03
2023-04-26T18:00:20.776Z,11.09
2023-04-26T18:02:48.575Z,11.15
2023-04-26T18:05:16.425Z,11.20
2023-04-26T18:07:43.275Z,11.13
2023-04-26T18:10:10.154Z,11.07
2023-04-26T18:12:37.035Z,11.13
2023-04-26T18:15:03.860Z,11.14
2023-04-26T18:17:31.142Z,11.20
2023-04-26T18:19:57.974Z,11.21
2023-04-26T18:22:24.882Z,11.25
2023-04-26T18:24:51.725Z,11.26
2023-04-26T18:27:18.681Z,11.27
2023-04-26T18:29:45.362Z,11.26
2023-04-26T18:32:12.607Z,11.26
2023-04-26T18:34:39.997Z,11.24
2023-04-26T18:37:07.151Z,11.19
2023-04-26T18:39:33.848Z,11.19
2023-04-26T18:42:01.973Z,11.20
2023-04-26T18:44:28.682Z,11.21
2023-04-26T18:46:56.093Z,11.13
2023-04-26T18:49:23.372Z,11.15
2023-04-26T18:51:50.471Z,11.16
2023-04-26T18:54:17.204Z,11.20
2023-04-26T18:56:44.933Z,11.13
2023-04-26T18:59:11.944Z,11.02
2023-04-26T19:01:38.743Z,11.06
2023-04-26T19:04:06.081Z,11.08
2023-04-26T19:06:33.160Z,10.99
2023-04-26T19:09:01.083Z,11.02
2023-04-26T19:11:27.786Z,10.88
2023-04-26T19:13:54.778Z,11.00
2023-04-26T19:16:22.328Z,11.03
2023-04-26T19:18:49.826Z,10.99
2023-04-26T19:21:16.780Z,11.08
2023-04-26T19:23:46.104Z,11.07
2023-04-26T19:26:36.695Z,11.03
2023-04-26T19:29:06.921Z,11.04
2023-04-26T19:31:44.345Z,11.01
2023-04-26T19:34:17.041Z,10.93
2023-04-26T19:36:57.978Z,10.90
2023-04-26T19:39:25.077Z,10.89
2023-04-26T19:41:51.997Z,10.94
2023-04-26T19:44:20.501Z,10.84
2023-04-26T19:46:47.420Z,10.86
2023-04-26T19:49:14.235Z,10.90
2023-04-26T19:51:41.096Z,10.75
2023-04-26T19:54:07.754Z,10.80
2023-04-26T19:56:34.560Z,10.66
2023-04-26T19:59:01.535Z,10.59
2023-04-26T20:01:37.090Z,10.62
2023-04-26T20:04:05.354Z,10.63
2023-04-26T20:06:33.135Z,10.60
2023-04-26T20:08:59.965Z,10.53
2023-04-26T20:11:26.794Z,10.54
2023-04-26T20:13:53.604Z,10.61
2023-04-26T20:16:20.740Z,10.48
2023-04-26T20:18:47.609Z,10.53
2023-04-26T20:21:14.284Z,10.49
2023-04-26T20:23:41.138Z,10.50
2023-04-26T20:26:07.771Z,10.48
2023-04-26T20:28:34.648Z,10.42
2023-04-26T20:31:01.548Z,10.44
2023-04-26T20:33:29.158Z,10.36
2023-04-26T20:35:56.192Z,10.35
2023-04-26T20:38:23.300Z,10.37
2023-04-26T20:40:50.154Z,10.29
2023-04-26T20:43:17.078Z,10.30
2023-04-26T20:45:45.060Z,10.31
2023-04-26T20:48:11.725Z,10.29
2023-04-26T20:50:38.790Z,10.33
2023-04-26T20:53:05.552Z,10.30
2023-04-26T20:55:32.630Z,10.23
2023-04-26T20:57:59.470Z,10.30
2023-04-26T21:00:26.370Z,10.28
2023-04-26T21:02:53.287Z,10.29
2023-04-26T21:05:20.823Z,10.28
2023-04-26T21:07:47.598Z,10.25
2023-04-26T21:10:14.468Z,10.16
2023-04-26T21:12:42.074Z,10.18
2023-04-26T21:15:09.137Z,10.14
2023-04-26T21:17:36.364Z,10.11
2023-04-26T21:20:04.241Z,10.04
2023-04-26T21:22:31.150Z,10.03
2023-04-26T21:24:57.893Z,10.06
2023-04-26T21:27:24.717Z,10.09
2023-04-26T21:29:51.410Z,10.04
2023-04-26T21:32:18.213Z,10.06
2023-04-26T21:34:44.936Z,10.09
2023-04-26T21:37:11.748Z,10.06
2023-04-26T21:39:38.512Z,10.00
2023-04-26T21:42:06.467Z,9.95
2023-04-26T21:44:33.604Z,9.98
2023-04-26T21:47:00.960Z,10.03
2023-04-26T21:49:27.714Z,10.01
2023-04-26T21:51:54.635Z,9.89
2023-04-26T21:54:21.365Z,9.91
2023-04-26T21:56:48.006Z,9.88
2023-04-26T21:59:15.295Z,9.91
2023-04-26T22:01:42.064Z,10.02
2023-04-26T22:04:09.423Z,9.99
2023-04-26T22:06:38.412Z,9.81
2023-04-26T22:09:09.546Z,9.74
2023-04-26T22:11:39.953Z,9.64
2023-04-26T22:14:07.020Z,9.62
2023-04-26T22:16:33.737Z,9.56
2023-04-26T22:19:00.857Z,9.52
2023-04-26T22:21:28.409Z,9.44
2023-04-26T22:24:12.816Z,9.48
2023-04-26T22:26:44.001Z,9.42
2023-04-26T22:29:14.309Z,9.39
2023-04-26T22:31:41.178Z,9.41
2023-04-26T22:34:07.976Z,9.45
2023-04-26T22:36:34.986Z,9.47
2023-04-26T22:39:01.935Z,9.45
2023-04-26T22:41:28.855Z,9.38
2023-04-26T22:43:55.480Z,9.47
2023-04-26T22:46:22.415Z,9.41
2023-04-26T22:48:49.299Z,9.44
2023-04-26T22:51:16.176Z,9.26
2023-04-26T22:53:43.130Z,9.31
2023-04-26T22:56:10.020Z,9.32
2023-04-26T22:58:36.680Z,9.29
2023-04-26T23:01:03.777Z,9.21
2023-04-26T23:03:30.860Z,9.32
2023-04-26T23:05:57.863Z,9.22
2023-04-26T23:08:24.697Z,9.23
2023-04-26T23:10:51.356Z,9.10
2023-04-26T23:13:18.071Z,9.07
2023-04-26T23:15:44.827Z,9.07
2023-04-26T23:18:11.839Z,9.10
2023-04-26T23:20:38.622Z,8.99
2023-04-26T23:23:05.984Z,8.98
2023-04-26T23:25:32.724Z,9.03
2023-04-26T23:27:59.583Z,9.04
2023-04-26T23:30:27.422Z,9.11
2023-04-26T23:32:54.384Z,8.96
2023-04-26T23:35:21.200Z,8.84
2023-04-26T23:37:48.071Z,8.87
2023-04-26T23:40:14.965Z,8.98
2023-04-26T23:42:41.873Z,8.99
2023-04-26T23:45:09.730Z,8.99
2023-04-26T23:47:36.661Z,8.97
2023-04-26T23:50:03.648Z,8.89
2023-04-26T23:52:30.563Z,8.76
2023-04-26T23:54:57.236Z,8.75
2023-04-26T23:57:24.125Z,8.66
2023-04-26T23:59:52.680Z,8.59
